sensor_id;sensor_type;location;lat;lon;timestamp;P1;durP1;ratioP1;P2;durP2;ratioP2
20431;SDS011;10375;49.136;10.366;2024-02-28T00:01:31;54.17;;;20.47;;
20431;SDS011;10375;49.136;10.366;2024-02-28T00:03:58;45.00;;;20.10;;
20431;SDS011;10375;49.136;10.366;2024-02-28T00:06:26;43.03;;;19.60;;
20431;SDS011;10375;49.136;10.366;2024-02-28T00:08:54;46.72;;;19.45;;
20431;SDS011;10375;49.136;10.366;2024-02-28T00:14:21;43.20;;;18.33;;
20431;SDS011;10375;49.136;10.366;2024-02-28T00:16:49;39.47;;;19.80;;
20431;SDS011;10375;49.136;10.366;2024-02-28T00:19:18;40.73;;;20.80;;
20431;SDS011;10375;49.136;10.366;2024-02-28T00:21:47;39.73;;;19.47;;
20431;SDS011;10375;49.136;10.366;2024-02-28T00:24:15;41.05;;;19.02;;
20431;SDS011;10375;49.136;10.366;2024-02-28T00:26:43;46.33;;;19.98;;
20431;SDS011;10375;49.136;10.366;2024-02-28T00:29:10;46.17;;;19.60;;
20431;SDS011;10375;49.136;10.366;2024-02-28T00:31:38;45.73;;;19.03;;
20431;SDS011;10375;49.136;10.366;2024-02-28T00:34:05;43.00;;;19.00;;
20431;SDS011;10375;49.136;10.366;2024-02-28T00:36:35;45.35;;;19.92;;
20431;SDS011;10375;49.136;10.366;2024-02-28T00:39:20;55.70;;;20.50;;
20431;SDS011;10375;49.136;10.366;2024-02-28T00:41:52;47.93;;;20.77;;
20431;SDS011;10375;49.136;10.366;2024-02-28T00:44:19;42.30;;;19.90;;
20431;SDS011;10375;49.136;10.366;2024-02-28T00:46:49;43.13;;;19.07;;
20431;SDS011;10375;49.136;10.366;2024-02-28T00:49:16;51.40;;;20.63;;
20431;SDS011;10375;49.136;10.366;2024-02-28T00:51:43;45.37;;;18.37;;
20431;SDS011;10375;49.136;10.366;2024-02-28T00:54:12;44.57;;;19.87;;
20431;SDS011;10375;49.136;10.366;2024-02-28T00:56:40;37.07;;;19.17;;
20431;SDS011;10375;49.136;10.366;2024-02-28T00:59:08;53.53;;;19.98;;
20431;SDS011;10375;49.136;10.366;2024-02-28T01:01:37;49.10;;;19.03;;
20431;SDS011;10375;49.136;10.366;2024-02-28T01:04:05;47.90;;;20.07;;
20431;SDS011;10375;49.136;10.366;2024-02-28T01:06:32;40.37;;;19.00;;
20431;SDS011;10375;49.136;10.366;2024-02-28T01:08:59;42.33;;;19.47;;
20431;SDS011;10375;49.136;10.366;2024-02-28T01:11:28;40.13;;;18.60;;
20431;SDS011;10375;49.136;10.366;2024-02-28T01:14:08;39.20;;;17.80;;
20431;SDS011;10375;49.136;10.366;2024-02-28T01:19:35;38.30;;;17.17;;
20431;SDS011;10375;49.136;10.366;2024-02-28T01:22:02;36.87;;;18.10;;
20431;SDS011;10375;49.136;10.366;2024-02-28T01:24:29;38.27;;;17.03;;
20431;SDS011;10375;49.136;10.366;2024-02-28T01:26:58;37.67;;;16.80;;
20431;SDS011;10375;49.136;10.366;2024-02-28T01:29:25;36.83;;;18.33;;
20431;SDS011;10375;49.136;10.366;2024-02-28T01:31:52;39.10;;;18.83;;
20431;SDS011;10375;49.136;10.366;2024-02-28T01:34:20;40.47;;;19.03;;
20431;SDS011;10375;49.136;10.366;2024-02-28T01:36:47;38.20;;;17.77;;
20431;SDS011;10375;49.136;10.366;2024-02-28T01:39:15;45.43;;;19.77;;
20431;SDS011;10375;49.136;10.366;2024-02-28T01:44:30;47.83;;;19.13;;
20431;SDS011;10375;49.136;10.366;2024-02-28T01:46:58;39.57;;;18.50;;
20431;SDS011;10375;49.136;10.366;2024-02-28T01:49:25;41.70;;;17.03;;
20431;SDS011;10375;49.136;10.366;2024-02-28T01:51:53;45.13;;;18.73;;
20431;SDS011;10375;49.136;10.366;2024-02-28T01:54:23;38.33;;;18.30;;
20431;SDS011;10375;49.136;10.366;2024-02-28T01:56:50;40.50;;;18.07;;
20431;SDS011;10375;49.136;10.366;2024-02-28T01:59:18;52.47;;;19.40;;
20431;SDS011;10375;49.136;10.366;2024-02-28T02:01:45;40.87;;;18.83;;
20431;SDS011;10375;49.136;10.366;2024-02-28T02:04:13;42.53;;;18.93;;
20431;SDS011;10375;49.136;10.366;2024-02-28T02:06:42;42.17;;;20.20;;
20431;SDS011;10375;49.136;10.366;2024-02-28T02:09:19;44.43;;;19.27;;
20431;SDS011;10375;49.136;10.366;2024-02-28T02:14:16;39.57;;;18.90;;
20431;SDS011;10375;49.136;10.366;2024-02-28T02:16:43;40.80;;;19.40;;
20431;SDS011;10375;49.136;10.366;2024-02-28T02:19:11;44.87;;;20.37;;
20431;SDS011;10375;49.136;10.366;2024-02-28T02:21:49;41.10;;;17.70;;
20431;SDS011;10375;49.136;10.366;2024-02-28T02:24:19;41.03;;;19.07;;
20431;SDS011;10375;49.136;10.366;2024-02-28T02:26:46;43.30;;;18.70;;
20431;SDS011;10375;49.136;10.366;2024-02-28T02:29:17;43.20;;;19.33;;
20431;SDS011;10375;49.136;10.366;2024-02-28T02:31:44;40.40;;;18.33;;
20431;SDS011;10375;49.136;10.366;2024-02-28T02:34:12;46.07;;;18.13;;
20431;SDS011;10375;49.136;10.366;2024-02-28T02:36:39;44.80;;;20.03;;
20431;SDS011;10375;49.136;10.366;2024-02-28T02:39:06;38.00;;;19.10;;
20431;SDS011;10375;49.136;10.366;2024-02-28T02:41:39;35.57;;;17.23;;
20431;SDS011;10375;49.136;10.366;2024-02-28T02:47:01;36.77;;;18.10;;
20431;SDS011;10375;49.136;10.366;2024-02-28T02:49:28;43.57;;;18.83;;
20431;SDS011;10375;49.136;10.366;2024-02-28T02:51:56;39.80;;;19.10;;
20431;SDS011;10375;49.136;10.366;2024-02-28T02:54:23;48.47;;;21.27;;
20431;SDS011;10375;49.136;10.366;2024-02-28T02:56:50;42.43;;;19.80;;
20431;SDS011;10375;49.136;10.366;2024-02-28T02:59:18;46.27;;;19.77;;
20431;SDS011;10375;49.136;10.366;2024-02-28T03:01:49;44.43;;;20.37;;
20431;SDS011;10375;49.136;10.366;2024-02-28T03:04:17;43.70;;;19.30;;
20431;SDS011;10375;49.136;10.366;2024-02-28T03:06:49;50.27;;;20.03;;
20431;SDS011;10375;49.136;10.366;2024-02-28T03:09:18;48.77;;;21.00;;
20431;SDS011;10375;49.136;10.366;2024-02-28T03:11:45;37.50;;;19.00;;
20431;SDS011;10375;49.136;10.366;2024-02-28T03:14:12;36.67;;;19.73;;
20431;SDS011;10375;49.136;10.366;2024-02-28T03:16:43;40.93;;;19.00;;
20431;SDS011;10375;49.136;10.366;2024-02-28T03:19:11;43.53;;;18.17;;
20431;SDS011;10375;49.136;10.366;2024-02-28T03:21:39;43.00;;;19.87;;
20431;SDS011;10375;49.136;10.366;2024-02-28T03:24:06;45.10;;;19.33;;
20431;SDS011;10375;49.136;10.366;2024-02-28T03:26:34;52.20;;;21.03;;
20431;SDS011;10375;49.136;10.366;2024-02-28T03:29:01;39.43;;;19.37;;
20431;SDS011;10375;49.136;10.366;2024-02-28T03:31:29;42.97;;;19.97;;
20431;SDS011;10375;49.136;10.366;2024-02-28T03:33:56;46.85;;;20.83;;
20431;SDS011;10375;49.136;10.366;2024-02-28T03:36:23;42.37;;;20.03;;
20431;SDS011;10375;49.136;10.366;2024-02-28T03:38:51;42.13;;;18.80;;
20431;SDS011;10375;49.136;10.366;2024-02-28T03:41:21;42.07;;;19.57;;
20431;SDS011;10375;49.136;10.366;2024-02-28T03:43:58;47.67;;;18.97;;
20431;SDS011;10375;49.136;10.366;2024-02-28T03:46:25;47.83;;;18.87;;
20431;SDS011;10375;49.136;10.366;2024-02-28T03:48:53;44.73;;;20.03;;
20431;SDS011;10375;49.136;10.366;2024-02-28T03:51:20;46.70;;;20.03;;
20431;SDS011;10375;49.136;10.366;2024-02-28T03:53:48;45.13;;;19.90;;
20431;SDS011;10375;49.136;10.366;2024-02-28T03:56:25;48.23;;;20.47;;
20431;SDS011;10375;49.136;10.366;2024-02-28T03:58:55;44.10;;;19.33;;
20431;SDS011;10375;49.136;10.366;2024-02-28T04:04:44;43.10;;;20.50;;
20431;SDS011;10375;49.136;10.366;2024-02-28T04:07:11;45.43;;;19.00;;
20431;SDS011;10375;49.136;10.366;2024-02-28T04:09:39;42.77;;;20.00;;
20431;SDS011;10375;49.136;10.366;2024-02-28T04:12:06;46.63;;;20.13;;
20431;SDS011;10375;49.136;10.366;2024-02-28T04:14:36;41.83;;;19.93;;
20431;SDS011;10375;49.136;10.366;2024-02-28T04:17:05;44.73;;;19.77;;
20431;SDS011;10375;49.136;10.366;2024-02-28T04:19:33;47.23;;;21.07;;
20431;SDS011;10375;49.136;10.366;2024-02-28T04:27:28;46.53;;;20.67;;
20431;SDS011;10375;49.136;10.366;2024-02-28T04:29:55;43.70;;;20.67;;
20431;SDS011;10375;49.136;10.366;2024-02-28T04:32:23;56.23;;;23.00;;
20431;SDS011;10375;49.136;10.366;2024-02-28T04:34:50;44.40;;;20.10;;
20431;SDS011;10375;49.136;10.366;2024-02-28T04:37:18;52.23;;;20.43;;
20431;SDS011;10375;49.136;10.366;2024-02-28T04:39:45;43.57;;;19.20;;
20431;SDS011;10375;49.136;10.366;2024-02-28T04:42:15;51.93;;;23.40;;
20431;SDS011;10375;49.136;10.366;2024-02-28T04:44:53;49.47;;;20.80;;
20431;SDS011;10375;49.136;10.366;2024-02-28T04:47:20;44.90;;;19.90;;
20431;SDS011;10375;49.136;10.366;2024-02-28T04:49:58;44.47;;;19.37;;
20431;SDS011;10375;49.136;10.366;2024-02-28T04:52:26;45.00;;;18.50;;
20431;SDS011;10375;49.136;10.366;2024-02-28T04:54:53;56.07;;;22.07;;
20431;SDS011;10375;49.136;10.366;2024-02-28T04:57:21;50.13;;;21.50;;
20431;SDS011;10375;49.136;10.366;2024-02-28T04:59:48;51.40;;;21.23;;
20431;SDS011;10375;49.136;10.366;2024-02-28T05:02:21;49.50;;;21.43;;
20431;SDS011;10375;49.136;10.366;2024-02-28T05:04:58;46.73;;;20.83;;
20431;SDS011;10375;49.136;10.366;2024-02-28T05:07:25;53.07;;;22.77;;
20431;SDS011;10375;49.136;10.366;2024-02-28T05:12:51;50.00;;;20.60;;
20431;SDS011;10375;49.136;10.366;2024-02-28T05:15:18;58.20;;;22.23;;
20431;SDS011;10375;49.136;10.366;2024-02-28T05:17:46;55.10;;;21.03;;
20431;SDS011;10375;49.136;10.366;2024-02-28T05:20:16;61.63;;;21.50;;
20431;SDS011;10375;49.136;10.366;2024-02-28T05:22:43;58.73;;;22.23;;
20431;SDS011;10375;49.136;10.366;2024-02-28T05:25:11;53.50;;;22.13;;
20431;SDS011;10375;49.136;10.366;2024-02-28T05:27:38;47.97;;;20.70;;
20431;SDS011;10375;49.136;10.366;2024-02-28T05:30:05;65.05;;;26.05;;
20431;SDS011;10375;49.136;10.366;2024-02-28T05:32:33;56.47;;;23.13;;
20431;SDS011;10375;49.136;10.366;2024-02-28T05:35:00;50.60;;;19.87;;
20431;SDS011;10375;49.136;10.366;2024-02-28T05:37:28;51.13;;;21.40;;
20431;SDS011;10375;49.136;10.366;2024-02-28T05:39:55;50.60;;;20.93;;
20431;SDS011;10375;49.136;10.366;2024-02-28T05:42:34;56.53;;;21.07;;
20431;SDS011;10375;49.136;10.366;2024-02-28T05:45:02;54.90;;;19.73;;
20431;SDS011;10375;49.136;10.366;2024-02-28T05:47:29;46.20;;;19.73;;
20431;SDS011;10375;49.136;10.366;2024-02-28T05:49:58;50.63;;;19.53;;
20431;SDS011;10375;49.136;10.366;2024-02-28T05:52:26;47.33;;;19.13;;
20431;SDS011;10375;49.136;10.366;2024-02-28T05:54:56;91.70;;;20.60;;
20431;SDS011;10375;49.136;10.366;2024-02-28T05:57:24;51.37;;;20.30;;
20431;SDS011;10375;49.136;10.366;2024-02-28T05:59:51;50.00;;;18.57;;
20431;SDS011;10375;49.136;10.366;2024-02-28T06:02:26;66.80;;;20.63;;
20431;SDS011;10375;49.136;10.366;2024-02-28T06:05:02;41.63;;;19.07;;
20431;SDS011;10375;49.136;10.366;2024-02-28T06:07:30;39.60;;;18.53;;
20431;SDS011;10375;49.136;10.366;2024-02-28T06:09:59;43.50;;;19.70;;
20431;SDS011;10375;49.136;10.366;2024-02-28T06:12:26;53.53;;;20.20;;
20431;SDS011;10375;49.136;10.366;2024-02-28T06:14:56;52.00;;;20.60;;
20431;SDS011;10375;49.136;10.366;2024-02-28T06:17:23;44.88;;;20.40;;
20431;SDS011;10375;49.136;10.366;2024-02-28T06:19:51;45.97;;;19.13;;
20431;SDS011;10375;49.136;10.366;2024-02-28T06:22:18;46.77;;;21.10;;
20431;SDS011;10375;49.136;10.366;2024-02-28T06:24:45;50.33;;;21.33;;
20431;SDS011;10375;49.136;10.366;2024-02-28T06:27:14;43.57;;;19.53;;
20431;SDS011;10375;49.136;10.366;2024-02-28T06:29:42;44.00;;;19.00;;
20431;SDS011;10375;49.136;10.366;2024-02-28T06:32:10;48.80;;;20.40;;
20431;SDS011;10375;49.136;10.366;2024-02-28T06:37:41;40.53;;;18.10;;
20431;SDS011;10375;49.136;10.366;2024-02-28T06:40:10;48.90;;;17.57;;
20431;SDS011;10375;49.136;10.366;2024-02-28T06:46:04;36.33;;;15.93;;
20431;SDS011;10375;49.136;10.366;2024-02-28T06:51:22;37.80;;;16.80;;
20431;SDS011;10375;49.136;10.366;2024-02-28T06:53:58;43.83;;;16.97;;
20431;SDS011;10375;49.136;10.366;2024-02-28T06:56:25;38.87;;;15.60;;
20431;SDS011;10375;49.136;10.366;2024-02-28T06:58:53;41.73;;;16.97;;
20431;SDS011;10375;49.136;10.366;2024-02-28T07:04:19;43.33;;;16.87;;
20431;SDS011;10375;49.136;10.366;2024-02-28T07:06:46;37.33;;;15.93;;
20431;SDS011;10375;49.136;10.366;2024-02-28T07:09:15;40.13;;;16.63;;
20431;SDS011;10375;49.136;10.366;2024-02-28T07:11:54;49.83;;;17.50;;
20431;SDS011;10375;49.136;10.366;2024-02-28T07:14:22;42.07;;;16.47;;
20431;SDS011;10375;49.136;10.366;2024-02-28T07:16:49;44.07;;;18.43;;
20431;SDS011;10375;49.136;10.366;2024-02-28T07:22:10;49.53;;;19.03;;
20431;SDS011;10375;49.136;10.366;2024-02-28T07:24:38;44.07;;;17.03;;
20431;SDS011;10375;49.136;10.366;2024-02-28T07:27:06;54.53;;;17.23;;
20431;SDS011;10375;49.136;10.366;2024-02-28T07:29:33;41.97;;;16.13;;
20431;SDS011;10375;49.136;10.366;2024-02-28T07:32:02;43.03;;;17.00;;
20431;SDS011;10375;49.136;10.366;2024-02-28T07:39:30;47.20;;;16.63;;
20431;SDS011;10375;49.136;10.366;2024-02-28T07:45:04;43.00;;;17.17;;
20431;SDS011;10375;49.136;10.366;2024-02-28T07:47:32;41.73;;;16.97;;
20431;SDS011;10375;49.136;10.366;2024-02-28T07:49:59;35.77;;;15.93;;
20431;SDS011;10375;49.136;10.366;2024-02-28T07:55:01;45.70;;;18.53;;
20431;SDS011;10375;49.136;10.366;2024-02-28T07:57:31;37.83;;;16.80;;
20431;SDS011;10375;49.136;10.366;2024-02-28T08:02:41;38.33;;;16.43;;
20431;SDS011;10375;49.136;10.366;2024-02-28T08:05:09;37.37;;;16.13;;
20431;SDS011;10375;49.136;10.366;2024-02-28T08:07:37;43.23;;;17.50;;
20431;SDS011;10375;49.136;10.366;2024-02-28T08:10:07;44.42;;;16.67;;
20431;SDS011;10375;49.136;10.366;2024-02-28T08:12:36;42.10;;;16.90;;
20431;SDS011;10375;49.136;10.366;2024-02-28T08:15:13;43.67;;;15.60;;
20431;SDS011;10375;49.136;10.366;2024-02-28T08:17:40;34.63;;;14.65;;
20431;SDS011;10375;49.136;10.366;2024-02-28T08:20:10;37.57;;;15.97;;
20431;SDS011;10375;49.136;10.366;2024-02-28T08:22:39;39.83;;;15.83;;
20431;SDS011;10375;49.136;10.366;2024-02-28T08:25:06;36.77;;;15.27;;
20431;SDS011;10375;49.136;10.366;2024-02-28T08:27:39;37.50;;;15.33;;
20431;SDS011;10375;49.136;10.366;2024-02-28T08:30:07;39.07;;;16.20;;
20431;SDS011;10375;49.136;10.366;2024-02-28T08:32:35;39.93;;;14.60;;
20431;SDS011;10375;49.136;10.366;2024-02-28T08:35:02;34.27;;;14.27;;
20431;SDS011;10375;49.136;10.366;2024-02-28T08:37:30;36.10;;;15.63;;
20431;SDS011;10375;49.136;10.366;2024-02-28T08:40:00;41.58;;;15.93;;
20431;SDS011;10375;49.136;10.366;2024-02-28T08:42:27;38.00;;;17.17;;
20431;SDS011;10375;49.136;10.366;2024-02-28T08:44:55;38.60;;;15.90;;
20431;SDS011;10375;49.136;10.366;2024-02-28T08:47:22;44.70;;;17.17;;
20431;SDS011;10375;49.136;10.366;2024-02-28T08:49:53;36.50;;;16.30;;
20431;SDS011;10375;49.136;10.366;2024-02-28T08:52:21;49.57;;;16.23;;
20431;SDS011;10375;49.136;10.366;2024-02-28T08:54:50;36.83;;;16.37;;
20431;SDS011;10375;49.136;10.366;2024-02-28T08:57:17;38.43;;;16.63;;
20431;SDS011;10375;49.136;10.366;2024-02-28T08:59:47;42.13;;;17.13;;
20431;SDS011;10375;49.136;10.366;2024-02-28T09:02:17;47.43;;;17.13;;
20431;SDS011;10375;49.136;10.366;2024-02-28T09:04:45;42.50;;;17.20;;
20431;SDS011;10375;49.136;10.366;2024-02-28T09:07:17;46.53;;;17.97;;
20431;SDS011;10375;49.136;10.366;2024-02-28T09:09:49;43.43;;;16.63;;
20431;SDS011;10375;49.136;10.366;2024-02-28T09:12:16;40.83;;;15.40;;
20431;SDS011;10375;49.136;10.366;2024-02-28T09:14:45;40.13;;;18.07;;
20431;SDS011;10375;49.136;10.366;2024-02-28T09:19:48;36.10;;;14.83;;
20431;SDS011;10375;49.136;10.366;2024-02-28T09:22:19;33.67;;;15.47;;
20431;SDS011;10375;49.136;10.366;2024-02-28T09:24:48;38.20;;;16.03;;
20431;SDS011;10375;49.136;10.366;2024-02-28T09:27:15;43.17;;;17.90;;
20431;SDS011;10375;49.136;10.366;2024-02-28T09:29:44;42.37;;;17.20;;
20431;SDS011;10375;49.136;10.366;2024-02-28T09:32:12;41.80;;;15.20;;
20431;SDS011;10375;49.136;10.366;2024-02-28T09:34:41;45.83;;;16.57;;
20431;SDS011;10375;49.136;10.366;2024-02-28T09:37:09;42.00;;;17.70;;
20431;SDS011;10375;49.136;10.366;2024-02-28T09:42:26;41.50;;;16.10;;
20431;SDS011;10375;49.136;10.366;2024-02-28T09:44:59;37.93;;;15.67;;
20431;SDS011;10375;49.136;10.366;2024-02-28T09:47:28;43.00;;;16.13;;
20431;SDS011;10375;49.136;10.366;2024-02-28T09:49:56;44.07;;;16.23;;
20431;SDS011;10375;49.136;10.366;2024-02-28T09:52:27;37.10;;;15.37;;
20431;SDS011;10375;49.136;10.366;2024-02-28T09:54:55;45.58;;;15.98;;
20431;SDS011;10375;49.136;10.366;2024-02-28T09:57:23;31.83;;;15.20;;
20431;SDS011;10375;49.136;10.366;2024-02-28T09:59:55;42.57;;;15.47;;
20431;SDS011;10375;49.136;10.366;2024-02-28T10:05:21;35.80;;;14.25;;
20431;SDS011;10375;49.136;10.366;2024-02-28T10:11:42;35.85;;;14.98;;
20431;SDS011;10375;49.136;10.366;2024-02-28T10:14:17;37.37;;;14.63;;
20431;SDS011;10375;49.136;10.366;2024-02-28T10:16:54;30.47;;;12.70;;
20431;SDS011;10375;49.136;10.366;2024-02-28T10:19:22;25.30;;;11.83;;
20431;SDS011;10375;49.136;10.366;2024-02-28T10:21:50;36.50;;;13.23;;
20431;SDS011;10375;49.136;10.366;2024-02-28T10:24:17;28.10;;;12.60;;
20431;SDS011;10375;49.136;10.366;2024-02-28T10:26:54;30.83;;;15.33;;
20431;SDS011;10375;49.136;10.366;2024-02-28T10:29:25;28.00;;;13.73;;
20431;SDS011;10375;49.136;10.366;2024-02-28T10:31:57;29.67;;;13.30;;
20431;SDS011;10375;49.136;10.366;2024-02-28T10:36:55;32.50;;;14.35;;
20431;SDS011;10375;49.136;10.366;2024-02-28T10:39:24;27.38;;;12.57;;
20431;SDS011;10375;49.136;10.366;2024-02-28T10:41:53;27.70;;;12.45;;
20431;SDS011;10375;49.136;10.366;2024-02-28T10:44:22;28.10;;;12.77;;
20431;SDS011;10375;49.136;10.366;2024-02-28T10:46:49;31.40;;;14.75;;
20431;SDS011;10375;49.136;10.366;2024-02-28T10:49:18;27.13;;;13.35;;
20431;SDS011;10375;49.136;10.366;2024-02-28T10:51:45;28.77;;;13.52;;
20431;SDS011;10375;49.136;10.366;2024-02-28T10:54:24;24.33;;;12.35;;
20431;SDS011;10375;49.136;10.366;2024-02-28T10:56:56;30.02;;;12.32;;
20431;SDS011;10375;49.136;10.366;2024-02-28T10:59:24;28.30;;;13.50;;
20431;SDS011;10375;49.136;10.366;2024-02-28T11:01:54;26.88;;;13.60;;
20431;SDS011;10375;49.136;10.366;2024-02-28T11:04:24;24.58;;;12.75;;
20431;SDS011;10375;49.136;10.366;2024-02-28T11:06:57;23.48;;;13.15;;
20431;SDS011;10375;49.136;10.366;2024-02-28T11:09:25;25.30;;;13.25;;
20431;SDS011;10375;49.136;10.366;2024-02-28T11:11:57;23.48;;;11.98;;
20431;SDS011;10375;49.136;10.366;2024-02-28T11:14:31;26.85;;;12.45;;
20431;SDS011;10375;49.136;10.366;2024-02-28T11:17:05;21.70;;;11.40;;
20431;SDS011;10375;49.136;10.366;2024-02-28T11:19:33;24.42;;;10.82;;
20431;SDS011;10375;49.136;10.366;2024-02-28T11:22:04;26.30;;;12.43;;
20431;SDS011;10375;49.136;10.366;2024-02-28T11:24:33;22.15;;;12.27;;
20431;SDS011;10375;49.136;10.366;2024-02-28T11:27:06;24.23;;;12.77;;
20431;SDS011;10375;49.136;10.366;2024-02-28T11:29:33;24.25;;;11.90;;
20431;SDS011;10375;49.136;10.366;2024-02-28T11:32:07;23.98;;;12.05;;
20431;SDS011;10375;49.136;10.366;2024-02-28T11:34:36;21.48;;;11.18;;
20431;SDS011;10375;49.136;10.366;2024-02-28T11:37:08;24.85;;;11.82;;
20431;SDS011;10375;49.136;10.366;2024-02-28T11:39:36;25.50;;;12.00;;
20431;SDS011;10375;49.136;10.366;2024-02-28T11:42:13;24.50;;;13.32;;
20431;SDS011;10375;49.136;10.366;2024-02-28T11:44:42;23.33;;;12.73;;
20431;SDS011;10375;49.136;10.366;2024-02-28T11:47:11;26.77;;;12.95;;
20431;SDS011;10375;49.136;10.366;2024-02-28T11:49:38;23.27;;;11.82;;
20431;SDS011;10375;49.136;10.366;2024-02-28T11:52:08;26.15;;;12.35;;
20431;SDS011;10375;49.136;10.366;2024-02-28T11:54:37;26.55;;;12.60;;
20431;SDS011;10375;49.136;10.366;2024-02-28T11:57:10;30.73;;;14.20;;
20431;SDS011;10375;49.136;10.366;2024-02-28T11:59:44;24.58;;;12.43;;
20431;SDS011;10375;49.136;10.366;2024-02-28T12:02:18;27.95;;;12.57;;
20431;SDS011;10375;49.136;10.366;2024-02-28T12:04:45;20.02;;;10.60;;
20431;SDS011;10375;49.136;10.366;2024-02-28T12:07:19;23.77;;;12.00;;
20431;SDS011;10375;49.136;10.366;2024-02-28T12:09:47;18.30;;;11.15;;
20431;SDS011;10375;49.136;10.366;2024-02-28T12:12:15;20.48;;;10.20;;
20431;SDS011;10375;49.136;10.366;2024-02-28T12:14:43;19.38;;;10.30;;
20431;SDS011;10375;49.136;10.366;2024-02-28T12:17:11;20.40;;;10.93;;
20431;SDS011;10375;49.136;10.366;2024-02-28T12:19:40;20.92;;;9.75;;
20431;SDS011;10375;49.136;10.366;2024-02-28T12:22:07;20.65;;;11.88;;
20431;SDS011;10375;49.136;10.366;2024-02-28T12:24:34;19.63;;;11.32;;
20431;SDS011;10375;49.136;10.366;2024-02-28T12:27:01;22.67;;;10.77;;
20431;SDS011;10375;49.136;10.366;2024-02-28T12:29:29;21.80;;;11.07;;
20431;SDS011;10375;49.136;10.366;2024-02-28T12:31:56;17.05;;;10.15;;
20431;SDS011;10375;49.136;10.366;2024-02-28T12:34:23;19.67;;;10.73;;
20431;SDS011;10375;49.136;10.366;2024-02-28T12:36:50;17.67;;;10.87;;
20431;SDS011;10375;49.136;10.366;2024-02-28T12:39:18;19.05;;;11.48;;
20431;SDS011;10375;49.136;10.366;2024-02-28T12:41:47;20.33;;;10.25;;
20431;SDS011;10375;49.136;10.366;2024-02-28T12:44:15;18.07;;;10.47;;
20431;SDS011;10375;49.136;10.366;2024-02-28T12:46:42;19.98;;;10.98;;
20431;SDS011;10375;49.136;10.366;2024-02-28T12:49:10;19.80;;;10.87;;
20431;SDS011;10375;49.136;10.366;2024-02-28T12:56:52;18.00;;;10.87;;
20431;SDS011;10375;49.136;10.366;2024-02-28T12:59:19;16.90;;;10.20;;
20431;SDS011;10375;49.136;10.366;2024-02-28T13:01:47;18.60;;;11.27;;
20431;SDS011;10375;49.136;10.366;2024-02-28T13:05:01;24.92;;;9.88;;
20431;SDS011;10375;49.136;10.366;2024-02-28T13:07:28;18.27;;;10.70;;
20431;SDS011;10375;49.136;10.366;2024-02-28T13:09:56;20.05;;;10.23;;
20431;SDS011;10375;49.136;10.366;2024-02-28T13:12:42;19.53;;;10.60;;
20431;SDS011;10375;49.136;10.366;2024-02-28T13:15:10;20.60;;;11.23;;
20431;SDS011;10375;49.136;10.366;2024-02-28T13:17:40;24.07;;;11.87;;
20431;SDS011;10375;49.136;10.366;2024-02-28T13:20:10;22.57;;;11.10;;
20431;SDS011;10375;49.136;10.366;2024-02-28T13:22:39;19.83;;;11.43;;
20431;SDS011;10375;49.136;10.366;2024-02-28T13:25:27;23.17;;;11.20;;
20431;SDS011;10375;49.136;10.366;2024-02-28T13:28:34;22.87;;;11.20;;
20431;SDS011;10375;49.136;10.366;2024-02-28T13:31:03;20.02;;;10.75;;
20431;SDS011;10375;49.136;10.366;2024-02-28T13:33:33;18.13;;;10.05;;
20431;SDS011;10375;49.136;10.366;2024-02-28T13:36:02;19.97;;;10.90;;
20431;SDS011;10375;49.136;10.366;2024-02-28T13:38:30;21.00;;;11.40;;
20431;SDS011;10375;49.136;10.366;2024-02-28T13:40:57;19.97;;;10.47;;
20431;SDS011;10375;49.136;10.366;2024-02-28T13:43:24;18.80;;;10.47;;
20431;SDS011;10375;49.136;10.366;2024-02-28T13:45:51;20.20;;;10.93;;
20431;SDS011;10375;49.136;10.366;2024-02-28T13:48:22;25.23;;;11.18;;
20431;SDS011;10375;49.136;10.366;2024-02-28T13:50:52;22.57;;;11.03;;
20431;SDS011;10375;49.136;10.366;2024-02-28T13:53:19;18.47;;;10.77;;
20431;SDS011;10375;49.136;10.366;2024-02-28T13:55:49;19.00;;;9.80;;
20431;SDS011;10375;49.136;10.366;2024-02-28T13:58:16;21.50;;;10.80;;
20431;SDS011;10375;49.136;10.366;2024-02-28T14:00:46;63.00;;;33.50;;
20431;SDS011;10375;49.136;10.366;2024-02-28T14:03:14;22.00;;;11.50;;
20431;SDS011;10375;49.136;10.366;2024-02-28T14:05:41;25.40;;;11.07;;
20431;SDS011;10375;49.136;10.366;2024-02-28T14:08:10;23.97;;;12.17;;
20431;SDS011;10375;49.136;10.366;2024-02-28T14:10:40;22.07;;;12.57;;
20431;SDS011;10375;49.136;10.366;2024-02-28T14:13:07;57.15;;;26.10;;
20431;SDS011;10375;49.136;10.366;2024-02-28T14:15:36;25.90;;;12.97;;
20431;SDS011;10375;49.136;10.366;2024-02-28T14:18:03;20.00;;;10.67;;
20431;SDS011;10375;49.136;10.366;2024-02-28T14:20:31;22.00;;;11.50;;
20431;SDS011;10375;49.136;10.366;2024-02-28T14:22:58;21.27;;;11.53;;
20431;SDS011;10375;49.136;10.366;2024-02-28T14:25:25;24.23;;;11.80;;
20431;SDS011;10375;49.136;10.366;2024-02-28T14:27:53;24.77;;;11.07;;
20431;SDS011;10375;49.136;10.366;2024-02-28T14:30:20;25.80;;;11.97;;
20431;SDS011;10375;49.136;10.366;2024-02-28T14:32:50;23.60;;;11.73;;
20431;SDS011;10375;49.136;10.366;2024-02-28T14:35:17;16.65;;;10.05;;
20431;SDS011;10375;49.136;10.366;2024-02-28T14:37:44;18.42;;;10.63;;
20431;SDS011;10375;49.136;10.366;2024-02-28T14:40:11;19.80;;;10.43;;
20431;SDS011;10375;49.136;10.366;2024-02-28T14:42:41;22.00;;;10.73;;
20431;SDS011;10375;49.136;10.366;2024-02-28T14:45:09;18.83;;;9.60;;
20431;SDS011;10375;49.136;10.366;2024-02-28T14:47:38;25.03;;;10.33;;
20431;SDS011;10375;49.136;10.366;2024-02-28T14:50:07;19.33;;;10.70;;
20431;SDS011;10375;49.136;10.366;2024-02-28T14:52:37;19.03;;;10.47;;
20431;SDS011;10375;49.136;10.366;2024-02-28T14:55:06;21.30;;;11.20;;
20431;SDS011;10375;49.136;10.366;2024-02-28T14:57:34;20.73;;;10.10;;
20431;SDS011;10375;49.136;10.366;2024-02-28T15:00:07;18.23;;;9.17;;
20431;SDS011;10375;49.136;10.366;2024-02-28T15:02:41;19.07;;;10.10;;
20431;SDS011;10375;49.136;10.366;2024-02-28T15:05:11;18.40;;;9.53;;
20431;SDS011;10375;49.136;10.366;2024-02-28T15:07:40;20.73;;;10.90;;
20431;SDS011;10375;49.136;10.366;2024-02-28T15:10:08;21.53;;;10.37;;
20431;SDS011;10375;49.136;10.366;2024-02-28T15:12:35;22.83;;;11.07;;
20431;SDS011;10375;49.136;10.366;2024-02-28T15:15:06;18.73;;;10.80;;
20431;SDS011;10375;49.136;10.366;2024-02-28T15:17:33;16.70;;;9.90;;
20431;SDS011;10375;49.136;10.366;2024-02-28T15:20:01;17.65;;;10.40;;
20431;SDS011;10375;49.136;10.366;2024-02-28T15:22:30;20.53;;;9.47;;
20431;SDS011;10375;49.136;10.366;2024-02-28T15:24:57;22.07;;;10.33;;
20431;SDS011;10375;49.136;10.366;2024-02-28T15:27:25;82.50;;;14.45;;
20431;SDS011;10375;49.136;10.366;2024-02-28T15:29:52;26.70;;;10.50;;
20431;SDS011;10375;49.136;10.366;2024-02-28T15:32:20;22.00;;;10.73;;
20431;SDS011;10375;49.136;10.366;2024-02-28T15:34:48;17.87;;;10.40;;